Time;durP1;ratioP1;P1;durP2;ratioP2;P2;SDS_P1;SDS_P2;PMS_P1;PMS_P2;Temp;Humidity;BMP_temperature;BMP_pressure;BME280_temperature;BME280_humidity;BME280_pressure;Samples;Min_cycle;Max_cycle;Signal;HPM_P1;HPM_P2
2023/02/20 00:01:53;;;;;;;6.00;3.67;;;10.70;99.90;;;;;;4933563;28;20217;-70
2023/02/20 00:04:19;;;;;;;3.50;3.00;;;10.50;99.90;;;;;;4939082;29;20205;-71
2023/02/20 00:06:45;;;;;;;5.37;3.87;;;10.60;99.90;;;;;;4951914;28;20426;-71
2023/02/20 00:09:11;;;;;;;6.57;4.90;;;10.70;99.90;;;;;;4958381;28;20447;-70
2023/02/20 00:11:37;;;;;;;12.10;7.20;;;10.80;99.90;;;;;;4948134;28;20213;-70
2023/02/20 00:14:02;;;;;;;4.00;2.97;;;10.90;99.90;;;;;;4930143;28;20475;-70
2023/02/20 00:16:28;;;;;;;6.00;4.17;;;10.80;99.90;;;;;;4940411;29;20390;-70
2023/02/20 00:18:53;;;;;;;3.30;2.90;;;10.80;99.90;;;;;;4931673;29;20191;-70
2023/02/20 00:21:19;;;;;;;6.17;4.07;;;10.80;99.90;;;;;;4942334;28;20224;-70
2023/02/20 00:23:45;;;;;;;5.53;3.47;;;10.90;99.90;;;;;;4948250;28;20202;-71
2023/02/20 00:26:13;;;;;;;5.13;3.30;;;11.00;99.90;;;;;;4939480;28;20196;-69
2023/02/20 00:28:39;;;;;;;5.63;3.23;;;10.70;99.90;;;;;;4945967;28;20835;-70
2023/02/20 00:31:07;;;;;;;8.30;3.30;;;10.70;99.90;;;;;;4936014;28;20419;-71
2023/02/20 00:33:32;;;;;;;8.47;4.10;;;10.50;99.90;;;;;;4930825;29;20785;-70
2023/02/20 00:35:58;;;;;;;7.33;3.63;;;10.30;99.90;;;;;;4941766;28;20424;-70
2023/02/20 00:38:24;;;;;;;7.37;3.80;;;10.50;99.90;;;;;;4942487;29;20222;-69
2023/02/20 00:40:49;;;;;;;4.93;2.83;;;10.40;99.90;;;;;;4947906;28;20862;-70
2023/02/20 00:43:15;;;;;;;4.90;4.07;;;10.50;99.90;;;;;;4938765;28;20225;-69
2023/02/20 00:45:40;;;;;;;9.67;4.40;;;10.50;99.90;;;;;;4937685;29;20264;-70
2023/02/20 00:48:06;;;;;;;4.73;3.43;;;10.50;99.90;;;;;;4941896;28;20245;-68
2023/02/20 00:50:32;;;;;;;5.30;3.87;;;10.60;99.90;;;;;;4928315;29;20648;-70
2023/02/20 00:52:57;;;;;;;4.33;3.00;;;10.50;99.90;;;;;;4929856;29;20282;-69
2023/02/20 00:55:23;;;;;;;8.57;4.13;;;10.50;99.90;;;;;;4928501;29;20190;-69
2023/02/20 00:57:48;;;;;;;4.87;3.50;;;10.60;99.90;;;;;;4947096;29;20224;-70
2023/02/20 01:00:21;;;;;;;5.33;3.50;;;10.40;99.90;;;;;;4934435;28;20197;-69
2023/02/20 01:02:47;;;;;;;6.13;3.80;;;10.30;99.90;;;;;;4928289;29;20572;-68
2023/02/20 01:05:13;;;;;;;3.80;2.90;;;10.30;99.90;;;;;;4941957;28;20426;-70
2023/02/20 01:07:38;;;;;;;9.13;4.07;;;10.50;99.90;;;;;;4938732;28;20193;-69
2023/02/20 01:10:04;;;;;;;4.40;3.40;;;10.50;99.90;;;;;;4932893;28;20188;-68
2023/02/20 01:12:30;;;;;;;4.67;3.77;;;10.30;99.90;;;;;;4951491;28;20201;-69
2023/02/20 01:14:55;;;;;;;5.60;3.47;;;10.40;99.90;;;;;;4941758;28;20434;-68
2023/02/20 01:17:21;;;;;;;6.10;3.70;;;10.30;99.90;;;;;;4937026;29;20215;-69
2023/02/20 01:19:46;;;;;;;7.23;4.00;;;10.20;99.90;;;;;;4939477;29;20716;-71
2023/02/20 01:22:12;;;;;;;7.07;3.70;;;10.20;99.90;;;;;;4946548;28;20239;-71
2023/02/20 01:24:38;;;;;;;4.37;3.17;;;10.00;99.90;;;;;;4942231;28;20211;-71
2023/02/20 01:27:03;;;;;;;4.93;4.00;;;10.10;99.90;;;;;;4934670;29;20569;-71
2023/02/20 01:29:29;;;;;;;5.50;3.87;;;9.90;99.90;;;;;;4947047;28;20697;-70
2023/02/20 01:31:54;;;;;;;3.53;3.13;;;9.80;99.90;;;;;;4946783;28;20291;-70
2023/02/20 01:34:20;;;;;;;8.03;3.70;;;9.80;99.90;;;;;;4942344;29;20736;-69
2023/02/20 01:36:47;;;;;;;5.00;3.50;;;9.80;99.90;;;;;;4944067;28;20214;-71
2023/02/20 01:39:17;;;;;;;6.97;4.33;;;9.80;99.90;;;;;;4926624;29;20344;-69
2023/02/20 01:41:42;;;;;;;5.70;3.90;;;9.70;99.90;;;;;;4927522;29;20469;-70
2023/02/20 01:44:21;;;;;;;5.23;3.47;;;9.80;99.90;;;;;;4942308;29;20884;-70
2023/02/20 01:46:55;;;;;;;5.83;4.17;;;9.90;99.90;;;;;;4932342;29;20189;-71
2023/02/20 01:49:32;;;;;;;6.20;3.33;;;9.90;99.90;;;;;;4929728;29;20421;-70
2023/02/20 01:52:08;;;;;;;5.23;3.63;;;9.80;99.90;;;;;;4930649;29;20481;-69
2023/02/20 01:54:37;;;;;;;5.50;3.60;;;9.80;99.90;;;;;;4927580;29;20418;-70
2023/02/20 01:57:08;;;;;;;7.10;3.43;;;9.70;99.90;;;;;;4927993;29;20422;-69
2023/02/20 01:59:36;;;;;;;5.50;3.23;;;9.80;99.90;;;;;;4945778;29;20792;-70
2023/02/20 02:02:04;;;;;;;4.40;3.57;;;9.90;99.90;;;;;;4934213;28;20450;-69
2023/02/20 02:04:31;;;;;;;5.53;3.57;;;10.00;99.90;;;;;;4937976;29;20468;-70
2023/02/20 02:06:57;;;;;;;5.80;3.87;;;10.10;99.90;;;;;;4942578;28;20706;-69
2023/02/20 02:09:29;;;;;;;6.30;3.20;;;10.00;99.90;;;;;;4946062;28;20920;-69
2023/02/20 02:11:54;;;;;;;5.30;3.73;;;10.00;99.90;;;;;;4933786;28;20445;-70
2023/02/20 02:14:20;;;;;;;5.50;3.27;;;9.80;99.90;;;;;;4934413;29;20939;-70
2023/02/20 02:16:54;;;;;;;6.30;3.53;;;9.90;99.90;;;;;;4930595;29;20192;-70
2023/02/20 02:19:51;;;;;;;4.60;3.40;;;9.90;99.90;;;;;;4942521;29;20185;-69
2023/02/20 02:22:41;;;;;;;5.23;3.37;;;9.90;99.90;;;;;;4937837;28;20456;-68
2023/02/20 02:25:38;;;;;;;6.83;3.33;;;9.80;99.90;;;;;;4936577;28;20623;-68
2023/02/20 02:28:19;;;;;;;7.63;3.80;;;9.90;99.90;;;;;;4927462;28;20794;-69
2023/02/20 02:30:50;;;;;;;5.20;2.70;;;9.90;99.90;;;;;;4939686;29;20410;-69
2023/02/20 02:33:37;;;;;;;6.00;3.10;;;10.00;99.90;;;;;;4929152;28;20431;-69
2023/02/20 02:36:03;;;;;;;7.90;3.40;;;10.10;99.90;;;;;;4940203;29;20889;-71
2023/02/20 02:38:40;;;;;;;9.53;3.30;;;10.00;99.90;;;;;;4927418;29;20413;-68
2023/02/20 02:41:22;;;;;;;7.43;3.00;;;10.00;99.90;;;;;;4941260;28;20187;-70
2023/02/20 02:44:01;;;;;;;7.47;3.93;;;10.00;99.90;;;;;;4944188;29;20671;-71
2023/02/20 02:46:37;;;;;;;4.30;3.00;;;10.00;99.90;;;;;;4943612;28;20406;-69
2023/02/20 02:49:13;;;;;;;3.90;2.80;;;10.10;99.90;;;;;;4945356;28;20421;-69
2023/02/20 02:51:44;;;;;;;4.57;3.20;;;10.20;99.90;;;;;;4944409;28;20759;-70
2023/02/20 02:54:21;;;;;;;3.90;3.00;;;10.20;99.90;;;;;;4927849;28;20454;-70
2023/02/20 02:56:47;;;;;;;3.90;2.83;;;10.20;99.90;;;;;;4936001;29;20416;-70
2023/02/20 02:59:32;;;;;;;4.53;2.80;;;10.20;99.90;;;;;;4945703;28;20429;-70
2023/02/20 03:02:03;;;;;;;6.63;3.00;;;10.10;99.90;;;;;;4926900;29;20817;-68
2023/02/20 03:04:31;;;;;;;4.70;2.87;;;10.10;99.90;;;;;;4926796;29;20828;-69
2023/02/20 03:07:03;;;;;;;5.87;3.30;;;10.20;99.90;;;;;;4928969;29;20468;-69
2023/02/20 03:09:36;;;;;;;3.23;2.60;;;10.10;99.90;;;;;;4942703;29;20418;-69
2023/02/20 03:12:06;;;;;;;4.10;2.53;;;10.00;99.90;;;;;;4941666;28;20474;-69
2023/02/20 03:17:30;;;;;;;3.07;2.77;;;10.00;99.90;;;;;;4945393;29;20502;-69
2023/02/20 03:20:04;;;;;;;5.07;3.13;;;10.00;99.90;;;;;;4945086;28;20990;-69
2023/02/20 03:22:48;;;;;;;5.20;2.87;;;10.10;99.90;;;;;;4933566;28;20440;-68
2023/02/20 03:25:23;;;;;;;3.37;2.77;;;10.00;99.90;;;;;;4940412;29;20423;-70
2023/02/20 03:27:56;;;;;;;5.07;3.00;;;10.10;99.90;;;;;;4928536;29;20405;-70
2023/02/20 03:30:27;;;;;;;7.43;3.97;;;10.00;99.90;;;;;;4936302;28;20406;-71
2023/02/20 03:44:10;;;;;;;3.37;3.03;;;10.10;99.90;;;;;;4938332;29;20547;-69
2023/02/20 03:46:37;;;;;;;5.70;3.40;;;10.10;99.90;;;;;;4924736;29;20426;-69
2023/02/20 03:49:26;;;;;;;5.30;3.30;;;10.10;99.90;;;;;;4929534;29;20785;-69
2023/02/20 03:51:58;;;;;;;3.30;3.00;;;10.10;99.90;;;;;;4931738;28;20436;-69
2023/02/20 03:54:25;;;;;;;4.83;3.13;;;10.10;99.90;;;;;;4942331;29;20439;-70
2023/02/20 03:56:56;;;;;;;5.37;2.97;;;10.10;99.90;;;;;;4939179;29;21232;-70
2023/02/20 03:59:45;;;;;;;3.50;2.73;;;10.10;99.90;;;;;;4945369;28;20453;-69
2023/02/20 04:02:29;;;;;;;5.67;3.60;;;10.10;99.90;;;;;;4935970;28;20883;-69
2023/02/20 04:04:58;;;;;;;5.50;3.20;;;10.00;99.90;;;;;;4940693;29;21241;-69
2023/02/20 04:07:29;;;;;;;4.43;3.10;;;10.00;99.90;;;;;;4932617;28;20518;-70
2023/02/20 04:09:59;;;;;;;7.70;2.80;;;10.00;99.90;;;;;;4940947;29;20423;-71
2023/02/20 04:12:33;;;;;;;8.60;3.13;;;9.80;99.90;;;;;;4948180;28;20439;-70
2023/02/20 04:15:00;;;;;;;6.47;3.37;;;9.70;99.90;;;;;;4936631;28;20853;-70
2023/02/20 04:17:30;;;;;;;3.67;2.87;;;9.50;99.90;;;;;;4942477;29;20444;-70
2023/02/20 04:19:56;;;;;;;5.23;3.43;;;9.40;99.90;;;;;;4931961;28;20426;-69
2023/02/20 04:22:28;;;;;;;5.50;2.70;;;9.30;99.90;;;;;;4945344;28;20429;-69
2023/02/20 04:25:01;;;;;;;6.10;3.30;;;9.30;99.90;;;;;;4947458;29;20596;-70
2023/02/20 04:27:26;;;;;;;3.70;3.40;;;9.20;99.90;;;;;;4931996;28;20497;-70
2023/02/20 04:29:52;;;;;;;3.70;2.77;;;9.10;99.90;;;;;;4936932;29;21031;-69
2023/02/20 04:32:18;;;;;;;6.43;3.17;;;9.10;99.90;;;;;;4937043;29;20721;-69
2023/02/20 04:34:44;;;;;;;6.33;3.47;;;8.90;99.90;;;;;;4942256;28;20656;-69
2023/02/20 04:37:15;;;;;;;4.63;3.60;;;8.80;99.90;;;;;;4938659;28;20228;-69
2023/02/20 04:39:41;;;;;;;5.43;3.47;;;8.70;99.90;;;;;;4940366;29;20184;-69
2023/02/20 04:42:07;;;;;;;5.77;3.47;;;8.80;99.90;;;;;;4943949;28;20822;-69
2023/02/20 04:44:33;;;;;;;5.63;3.80;;;8.90;99.90;;;;;;4938320;28;20510;-69
2023/02/20 04:47:01;;;;;;;6.77;3.77;;;8.70;99.90;;;;;;4934309;28;20174;-69
2023/02/20 04:49:27;;;;;;;9.93;4.00;;;8.70;99.90;;;;;;4944537;28;20435;-70
2023/02/20 04:51:53;;;;;;;6.03;3.70;;;8.50;99.90;;;;;;4937709;29;20468;-69
2023/02/20 04:54:18;;;;;;;8.20;4.60;;;8.40;99.90;;;;;;4946696;28;20186;-70
2023/02/20 04:56:44;;;;;;;5.77;3.50;;;8.50;99.90;;;;;;4943180;29;20420;-70
2023/02/20 04:59:10;;;;;;;4.37;3.90;;;8.50;99.90;;;;;;4939221;28;20185;-69
2023/02/20 05:01:35;;;;;;;3.63;3.10;;;8.60;99.90;;;;;;4929777;29;20252;-69
2023/02/20 05:04:01;;;;;;;6.23;4.20;;;8.70;99.90;;;;;;4931197;29;20653;-70
2023/02/20 05:06:26;;;;;;;6.97;3.97;;;8.70;99.90;;;;;;4943721;29;20195;-69
2023/02/20 05:08:52;;;;;;;8.40;3.97;;;8.70;99.90;;;;;;4941943;28;20192;-69
2023/02/20 05:11:18;;;;;;;4.70;3.23;;;8.70;99.90;;;;;;4947481;28;20184;-69
2023/02/20 05:13:43;;;;;;;4.40;3.37;;;8.60;99.90;;;;;;4947076;28;20692;-70
2023/02/20 05:16:12;;;;;;;7.13;4.07;;;8.50;99.90;;;;;;4942265;28;20653;-71
2023/02/20 05:18:38;;;;;;;4.97;4.47;;;8.40;99.90;;;;;;4946545;29;21141;-71
2023/02/20 05:23:48;;;;;;;7.73;3.87;;;8.20;99.90;;;;;;4936270;29;20453;-70
2023/02/20 05:26:19;;;;;;;5.77;3.30;;;8.20;99.90;;;;;;4927787;29;20427;-70
2023/02/20 05:28:44;;;;;;;5.77;4.03;;;8.20;99.90;;;;;;4927977;29;20719;-69
2023/02/20 05:31:10;;;;;;;8.00;3.53;;;8.20;99.90;;;;;;4942197;28;20476;-70
2023/02/20 05:33:36;;;;;;;5.77;3.87;;;8.10;99.90;;;;;;4946880;29;20189;-70
2023/02/20 05:36:03;;;;;;;4.13;3.70;;;8.10;99.90;;;;;;4927714;29;20561;-71
2023/02/20 05:38:28;;;;;;;4.43;3.87;;;8.10;99.90;;;;;;4930411;28;20265;-70
2023/02/20 05:40:54;;;;;;;4.93;3.73;;;8.00;99.90;;;;;;4936236;29;20564;-69
2023/02/20 05:43:20;;;;;;;8.70;4.47;;;7.90;99.90;;;;;;4930423;28;20213;-69
2023/02/20 05:45:46;;;;;;;6.27;4.47;;;7.90;99.90;;;;;;4934944;29;20204;-68
2023/02/20 05:48:12;;;;;;;7.20;3.83;;;7.90;99.90;;;;;;4938230;28;20268;-69
2023/02/20 05:50:37;;;;;;;5.80;4.00;;;8.00;99.90;;;;;;4927481;29;20453;-68
2023/02/20 05:53:03;;;;;;;6.57;4.20;;;8.10;99.90;;;;;;4926646;29;20480;-70
2023/02/20 05:55:29;;;;;;;9.50;4.50;;;8.00;99.90;;;;;;4925082;29;20190;-69
2023/02/20 05:57:56;;;;;;;7.10;3.77;;;8.10;99.90;;;;;;4927065;29;20179;-69
2023/02/20 06:00:21;;;;;;;5.23;3.77;;;8.00;99.90;;;;;;4934000;28;20452;-70
2023/02/20 06:02:47;;;;;;;5.87;3.93;;;7.90;99.90;;;;;;4942802;28;20557;-71
2023/02/20 06:05:13;;;;;;;6.10;4.57;;;7.90;99.90;;;;;;4937439;28;20181;-71
2023/02/20 06:07:41;;;;;;;4.50;4.00;;;7.90;99.90;;;;;;4940617;29;20204;-71
2023/02/20 06:10:07;;;;;;;6.40;4.73;;;7.90;99.90;;;;;;4926971;29;20503;-70
2023/02/20 06:12:32;;;;;;;5.63;4.37;;;7.90;99.90;;;;;;4938197;28;20534;-69
2023/02/20 06:14:58;;;;;;;5.13;4.30;;;7.90;99.90;;;;;;4939006;28;20202;-70
2023/02/20 06:17:23;;;;;;;5.57;4.60;;;7.80;99.90;;;;;;4931491;28;20641;-70
2023/02/20 06:19:49;;;;;;;5.00;3.97;;;7.80;99.90;;;;;;4930923;29;20707;-69
2023/02/20 06:22:16;;;;;;;12.37;5.23;;;7.80;99.90;;;;;;4929675;28;20204;-70
2023/02/20 06:24:45;;;;;;;7.70;4.70;;;7.70;99.90;;;;;;4930868;29;20208;-70
2023/02/20 06:27:11;;;;;;;5.13;4.57;;;7.70;99.90;;;;;;4943046;28;20790;-71
2023/02/20 06:29:36;;;;;;;6.90;4.27;;;7.60;99.90;;;;;;4927069;29;20424;-72
2023/02/20 06:32:02;;;;;;;5.80;4.23;;;7.60;99.90;;;;;;4943465;28;20349;-69
2023/02/20 06:34:31;;;;;;;6.97;4.87;;;7.50;99.90;;;;;;4928988;29;20187;-69
2023/02/20 06:37:03;;;;;;;11.20;5.17;;;7.60;99.90;;;;;;4929925;29;20588;-69
2023/02/20 06:39:30;;;;;;;7.77;4.70;;;7.50;99.90;;;;;;4945447;28;20443;-68
2023/02/20 06:41:55;;;;;;;6.73;4.37;;;7.60;99.90;;;;;;4939829;28;20618;-71
2023/02/20 06:44:21;;;;;;;9.63;4.53;;;7.70;99.90;;;;;;4926627;29;20555;-70
2023/02/20 06:46:48;;;;;;;8.97;4.67;;;7.70;99.90;;;;;;4928053;29;20208;-67
2023/02/20 06:49:14;;;;;;;6.13;5.30;;;7.70;99.90;;;;;;4928053;29;20448;-69
2023/02/20 06:51:40;;;;;;;7.43;4.87;;;7.70;99.90;;;;;;4931911;28;20870;-68
2023/02/20 06:54:07;;;;;;;8.20;5.10;;;7.70;99.90;;;;;;4926532;29;20200;-72
2023/02/20 06:56:34;;;;;;;10.47;7.80;;;7.70;99.90;;;;;;4936417;29;20425;-73
2023/02/20 06:59:01;;;;;;;6.00;5.13;;;7.80;99.90;;;;;;4938265;29;20415;-68
2023/02/20 07:01:29;;;;;;;8.07;5.47;;;7.90;99.90;;;;;;4929459;28;20448;-72
2023/02/20 07:03:57;;;;;;;7.53;5.10;;;8.10;99.90;;;;;;4934752;28;20810;-71
2023/02/20 07:06:24;;;;;;;9.13;4.83;;;8.20;99.90;;;;;;4943416;29;20458;-74
2023/02/20 07:08:49;;;;;;;10.50;5.00;;;8.20;99.90;;;;;;4935737;28;20431;-70
2023/02/20 07:11:20;;;;;;;7.37;4.40;;;8.20;99.90;;;;;;4928516;28;20424;-71
2023/02/20 07:13:45;;;;;;;6.60;4.30;;;8.30;99.90;;;;;;4945970;29;20226;-70
2023/02/20 07:16:11;;;;;;;5.60;4.67;;;8.30;99.90;;;;;;4945522;28;20455;-73
2023/02/20 07:18:37;;;;;;;6.63;4.20;;;8.40;99.90;;;;;;4940180;29;20192;-71
2023/02/20 07:21:02;;;;;;;7.63;5.10;;;8.40;99.90;;;;;;4926206;29;20385;-70
2023/02/20 07:23:28;;;;;;;7.43;4.80;;;8.50;99.90;;;;;;4925797;29;20300;-72
2023/02/20 07:25:54;;;;;;;7.80;5.00;;;8.50;99.90;;;;;;4943377;29;20193;-71
2023/02/20 07:28:19;;;;;;;7.40;5.43;;;8.40;99.90;;;;;;4935727;28;20262;-70
2023/02/20 07:30:47;;;;;;;12.10;7.33;;;8.40;99.90;;;;;;4924540;29;20511;-71
2023/02/20 07:33:14;;;;;;;47.53;26.23;;;8.40;99.90;;;;;;4925724;29;20696;-69
2023/02/20 07:35:39;;;;;;;25.37;13.07;;;8.50;99.90;;;;;;4926011;29;20423;-73
2023/02/20 07:38:05;;;;;;;9.93;5.23;;;8.60;99.90;;;;;;4926770;29;20431;-68
2023/02/20 07:40:30;;;;;;;6.43;4.30;;;8.60;99.90;;;;;;4930881;29;20682;-69
2023/02/20 07:42:56;;;;;;;6.20;4.20;;;8.60;99.90;;;;;;4948465;28;20228;-71
2023/02/20 07:45:22;;;;;;;10.10;5.60;;;8.70;99.90;;;;;;4937339;28;20221;-69
2023/02/20 07:47:48;;;;;;;6.00;4.47;;;8.80;99.90;;;;;;4944098;28;20190;-70
2023/02/20 07:50:14;;;;;;;6.67;3.93;;;8.90;99.90;;;;;;4929302;29;20452;-70
2023/02/20 07:52:40;;;;;;;7.80;4.27;;;9.00;99.90;;;;;;4943579;28;20200;-71
2023/02/20 07:55:06;;;;;;;5.40;3.97;;;9.00;99.90;;;;;;4948319;28;21004;-70
2023/02/20 07:57:34;;;;;;;5.50;4.33;;;9.10;99.90;;;;;;5006743;23;20308;-70
2023/02/20 07:59:59;;;;;;;9.97;4.27;;;9.10;99.90;;;;;;5006467;28;20607;-71
2023/02/20 08:02:25;;;;;;;6.10;3.70;;;9.20;99.90;;;;;;5006456;28;20441;-71
2023/02/20 08:04:51;;;;;;;8.77;5.17;;;9.20;99.90;;;;;;5006180;28;20301;-72
2023/02/20 08:07:16;;;;;;;7.10;4.00;;;9.30;99.90;;;;;;5005864;28;21082;-70
2023/02/20 08:09:42;;;;;;;6.50;4.17;;;9.40;99.90;;;;;;5006658;28;20187;-71
2023/02/20 08:12:07;;;;;;;8.57;4.00;;;9.60;99.90;;;;;;5006384;28;20183;-71
2023/02/20 08:14:33;;;;;;;8.23;5.10;;;9.50;99.90;;;;;;5006178;28;20180;-71
2023/02/20 08:16:58;;;;;;;5.63;4.10;;;9.60;99.90;;;;;;5005779;28;20748;-70
2023/02/20 08:19:24;;;;;;;5.77;4.10;;;9.60;99.90;;;;;;5006005;28;20197;-72
2023/02/20 08:21:49;;;;;;;4.87;3.37;;;9.80;99.90;;;;;;5005800;28;20190;-71
2023/02/20 08:24:15;;;;;;;5.53;3.90;;;9.70;99.90;;;;;;5005860;28;20201;-71
2023/02/20 08:26:45;;;;;;;3.93;3.40;;;9.80;99.90;;;;;;5005795;28;20224;-72
2023/02/20 08:29:11;;;;;;;6.60;4.30;;;10.00;99.90;;;;;;5005791;28;20447;-71
2023/02/20 08:31:36;;;;;;;8.03;3.87;;;9.90;99.90;;;;;;4988196;28;20953;-72
2023/02/20 08:34:03;;;;;;;5.60;3.90;;;10.00;99.90;;;;;;5005690;28;20549;-72
2023/02/20 08:36:30;;;;;;;6.33;3.80;;;10.10;99.90;;;;;;5005626;28;20201;-72
2023/02/20 08:38:56;;;;;;;7.90;4.10;;;10.20;99.90;;;;;;5005277;28;20790;-73
2023/02/20 08:41:21;;;;;;;6.80;3.40;;;10.20;99.90;;;;;;5005573;28;20425;-72
2023/02/20 08:43:47;;;;;;;6.00;3.53;;;10.20;99.90;;;;;;5005640;28;20493;-72
2023/02/20 08:46:13;;;;;;;4.23;3.47;;;10.30;99.90;;;;;;5005439;28;20203;-71
2023/02/20 08:48:38;;;;;;;8.23;3.90;;;10.50;99.90;;;;;;5005292;28;20175;-72
2023/02/20 08:51:05;;;;;;;6.17;3.40;;;10.50;99.90;;;;;;5005394;28;20182;-73
2023/02/20 08:53:31;;;;;;;6.30;3.67;;;10.50;99.90;;;;;;4987128;28;20213;-72
2023/02/20 08:55:57;;;;;;;4.80;4.00;;;10.40;99.90;;;;;;5005056;28;20454;-72
2023/02/20 08:58:24;;;;;;;5.50;3.50;;;10.40;99.90;;;;;;5005339;28;21031;-71
2023/02/20 09:00:50;;;;;;;4.93;3.30;;;10.50;99.90;;;;;;5005880;28;20188;-71
2023/02/20 09:03:16;;;;;;;5.40;3.10;;;10.60;99.90;;;;;;5005321;28;20813;-71
2023/02/20 09:05:42;;;;;;;6.97;3.50;;;10.70;99.90;;;;;;5005554;28;20235;-71
2023/02/20 09:08:08;;;;;;;6.23;3.23;;;10.80;99.90;;;;;;5005027;28;20411;-71
2023/02/20 09:10:34;;;;;;;4.47;3.33;;;10.90;99.90;;;;;;5004930;28;20637;-70
2023/02/20 09:13:00;;;;;;;3.83;2.90;;;11.00;99.90;;;;;;5005017;28;20184;-71
2023/02/20 09:15:25;;;;;;;6.93;3.27;;;10.90;99.90;;;;;;5005194;28;20178;-71
2023/02/20 09:17:51;;;;;;;3.40;2.93;;;10.80;99.90;;;;;;5004914;28;20471;-71
2023/02/20 09:20:19;;;;;;;3.87;2.90;;;10.70;99.90;;;;;;5004934;28;20222;-70
2023/02/20 09:22:46;;;;;;;4.23;2.90;;;10.70;99.90;;;;;;5004914;28;21381;-71
2023/02/20 09:25:12;;;;;;;5.23;3.07;;;10.80;99.90;;;;;;5004504;28;20468;-71
2023/02/20 09:27:38;;;;;;;4.47;2.60;;;11.00;99.90;;;;;;5004791;28;20879;-70
2023/02/20 09:30:04;;;;;;;4.40;3.20;;;11.20;99.90;;;;;;5004893;28;20439;-70
2023/02/20 09:32:30;;;;;;;8.40;4.27;;;11.30;99.90;;;;;;5004659;28;20183;-70
2023/02/20 09:34:56;;;;;;;5.77;3.33;;;11.20;99.90;;;;;;5004865;28;20422;-70
2023/02/20 09:37:23;;;;;;;5.30;2.87;;;11.50;99.90;;;;;;5004450;28;20205;-70
2023/02/20 09:39:48;;;;;;;4.57;2.90;;;11.80;99.90;;;;;;5004177;28;20415;-70
2023/02/20 09:42:52;;;;;;;8.30;2.93;;;11.80;99.90;;;;;;5004591;28;20421;-70
2023/02/20 09:45:28;;;;;;;4.07;2.23;;;11.90;99.90;;;;;;5004450;28;20190;-71
2023/02/20 09:48:15;;;;;;;3.60;2.70;;;11.80;99.90;;;;;;5004325;28;20680;-71
2023/02/20 09:50:52;;;;;;;4.00;2.50;;;12.00;99.90;;;;;;5004322;28;20408;-71
2023/02/20 09:53:27;;;;;;;3.93;2.30;;;12.30;99.90;;;;;;4986399;28;20423;-71
2023/02/20 09:55:54;;;;;;;5.63;3.00;;;12.60;99.90;;;;;;5003688;28;20496;-71
2023/02/20 09:58:43;;;;;;;7.20;2.77;;;12.90;99.90;;;;;;5003510;28;20425;-71
2023/02/20 10:01:14;;;;;;;2.93;2.20;;;13.20;99.90;;;;;;5003785;28;20406;-72
2023/02/20 10:03:50;;;;;;;3.50;2.27;;;13.20;99.90;;;;;;5004107;28;20817;-71
2023/02/20 10:06:20;;;;;;;5.00;2.60;;;13.00;99.90;;;;;;5004323;28;20780;-70
2023/02/20 10:08:50;;;;;;;5.87;2.33;;;12.70;99.90;;;;;;5004140;28;20433;-71
2023/02/20 10:11:35;;;;;;;5.60;2.33;;;12.90;99.90;;;;;;5004048;28;20413;-71
2023/02/20 10:14:44;;;;;;;6.13;2.47;;;12.80;99.90;;;;;;5004157;28;20702;-71
2023/02/20 10:17:34;;;;;;;4.73;2.40;;;12.70;99.90;;;;;;5003758;28;20439;-72
2023/02/20 10:20:55;;;;;;;4.90;2.13;;;12.90;99.90;;;;;;5003711;28;20884;-71
2023/02/20 10:23:29;;;;;;;3.60;2.20;;;13.20;99.90;;;;;;4942342;29;20470;-72
2023/02/20 10:26:00;;;;;;;6.60;2.80;;;13.00;99.90;;;;;;4942657;29;20443;-70
2023/02/20 10:28:26;;;;;;;4.43;2.30;;;12.90;99.90;;;;;;4976103;28;20423;-72
2023/02/20 10:31:00;;;;;;;3.37;2.30;;;12.80;99.90;;;;;;5004114;28;20450;-71
2023/02/20 10:33:31;;;;;;;4.60;2.60;;;13.00;99.90;;;;;;5004116;28;20410;-72
2023/02/20 10:36:16;;;;;;;3.23;2.10;;;13.10;99.90;;;;;;5003885;28;20896;-71
2023/02/20 10:38:51;;;;;;;4.70;2.10;;;13.10;99.90;;;;;;5003539;28;20415;-70
2023/02/20 10:41:31;;;;;;;4.53;2.50;;;13.20;99.90;;;;;;5002909;28;20940;-71
2023/02/20 10:43:59;;;;;;;5.60;3.00;;;13.00;99.90;;;;;;5003925;28;20454;-71
2023/02/20 10:46:28;;;;;;;7.27;3.23;;;13.20;99.90;;;;;;5003360;28;20864;-71
2023/02/20 10:48:57;;;;;;;2.40;2.20;;;13.10;99.90;;;;;;5003462;28;20418;-70
2023/02/20 10:51:33;;;;;;;4.50;2.40;;;13.30;99.90;;;;;;5003267;28;20877;-71
2023/02/20 10:54:03;;;;;;;11.43;3.40;;;13.40;99.90;;;;;;5003403;28;20417;-70
2023/02/20 10:56:43;;;;;;;7.40;2.40;;;13.60;99.90;;;;;;5003149;28;20466;-71
2023/02/20 10:59:20;;;;;;;3.23;2.10;;;13.30;99.90;;;;;;5003562;28;20520;-69
2023/02/20 11:01:53;;;;;;;7.07;2.50;;;13.20;99.90;;;;;;5003450;28;20410;-71
2023/02/20 11:04:25;;;;;;;3.30;2.17;;;13.30;99.90;;;;;;4985526;28;20456;-71
2023/02/20 11:07:14;;;;;;;5.27;2.47;;;13.60;99.90;;;;;;5002514;28;20601;-71
2023/02/20 11:09:41;;;;;;;3.83;1.80;;;13.60;99.90;;;;;;5003160;28;21181;-72
2023/02/20 11:12:07;;;;;;;6.83;2.60;;;13.90;99.90;;;;;;5004792;28;20443;-70
2023/02/20 11:14:45;;;;;;;3.80;2.23;;;13.80;99.90;;;;;;4989844;28;21037;-70
2023/02/20 11:17:18;;;;;;;7.43;3.10;;;14.20;99.90;;;;;;5007206;28;20533;-70
2023/02/20 11:19:56;;;;;;;5.03;2.17;;;15.00;99.90;;;;;;5007707;28;20425;-71
2023/02/20 11:22:42;;;;;;;5.80;2.10;;;16.60;99.90;;;;;;5007865;28;21446;-71
2023/02/20 11:25:17;;;;;;;4.60;2.10;;;18.10;96.40;;;;;;5006916;28;20927;-71
2023/02/20 11:27:46;;;;;;;3.97;2.03;;;17.90;95.40;;;;;;5007881;28;20434;-71
2023/02/20 11:30:21;;;;;;;3.63;1.93;;;17.80;95.20;;;;;;5008158;28;20406;-72
2023/02/20 11:32:48;;;;;;;5.57;2.60;;;17.30;94.70;;;;;;5007715;28;20394;-71
2023/02/20 11:35:16;;;;;;;6.63;1.83;;;18.10;94.20;;;;;;5007802;28;20465;-71
2023/02/20 11:37:46;;;;;;;5.40;1.97;;;19.60;91.40;;;;;;5007170;28;20478;-72
2023/02/20 11:40:26;;;;;;;4.10;1.83;;;20.70;90.80;;;;;;5012484;28;20418;-72
2023/02/20 11:42:51;;;;;;;3.20;2.20;;;21.60;83.90;;;;;;5012092;28;20429;-71
2023/02/20 11:45:28;;;;;;;5.13;1.70;;;21.20;81.00;;;;;;5012251;28;20697;-71
2023/02/20 11:48:12;;;;;;;7.23;3.20;;;20.80;84.00;;;;;;5012584;28;20577;-71
2023/02/20 11:50:51;;;;;;;3.83;1.70;;;21.70;81.40;;;;;;5011168;28;20457;-71
2023/02/20 11:53:31;;;;;;;3.47;2.00;;;23.00;77.90;;;;;;5011049;28;20433;-70
2023/02/20 11:56:17;;;;;;;4.87;2.10;;;22.50;74.00;;;;;;5011552;28;20476;-71
2023/02/20 11:58:45;;;;;;;4.70;1.97;;;23.70;72.40;;;;;;4994626;28;20461;-70
2023/02/20 12:01:32;;;;;;;6.10;2.10;;;24.00;71.00;;;;;;5015345;28;20791;-70
2023/02/20 12:03:58;;;;;;;4.07;2.17;;;23.60;70.00;;;;;;5008836;28;20469;-71
2023/02/20 12:06:35;;;;;;;2.87;1.77;;;24.80;67.90;;;;;;5006017;28;20439;-70
2023/02/20 12:09:03;;;;;;;3.10;1.57;;;25.20;65.00;;;;;;5006504;28;20549;-70
2023/02/20 12:11:29;;;;;;;4.53;2.20;;;25.40;63.60;;;;;;5006198;28;20442;-70
2023/02/20 12:13:57;;;;;;;3.23;2.00;;;26.10;62.60;;;;;;5006516;28;20473;-70
2023/02/20 12:16:49;;;;;;;4.87;1.83;;;24.70;61.70;;;;;;5006447;28;20577;-71
2023/02/20 12:19:40;;;;;;;2.63;1.50;;;24.80;62.50;;;;;;4961251;28;20419;-72
2023/02/20 12:22:27;;;;;;;2.60;1.63;;;25.20;63.00;;;;;;5005825;28;20422;-72
2023/02/20 12:24:59;;;;;;;3.00;1.70;;;25.30;61.40;;;;;;5005194;28;20501;-73
2023/02/20 12:27:34;;;;;;;5.30;1.60;;;25.60;60.90;;;;;;5005684;28;20423;-72
2023/02/20 12:30:22;;;;;;;1.90;1.20;;;25.70;58.00;;;;;;5005807;28;20406;-71
2023/02/20 12:33:24;;;;;;;3.50;2.07;;;25.60;58.50;;;;;;5005514;28;20411;-71
2023/02/20 12:36:45;;;;;;;2.07;1.33;;;25.90;57.00;;;;;;5005832;28;21227;-72
2023/02/20 12:39:32;;;;;;;3.07;1.03;;;26.10;56.90;;;;;;5000555;28;20442;-71
2023/02/20 12:42:10;;;;;;;2.33;1.37;;;24.70;56.20;;;;;;5005485;28;20438;-72
2023/02/20 12:44:47;;;;;;;3.57;1.20;;;24.80;56.30;;;;;;5005396;28;20482;-72
2023/02/20 12:47:30;;;;;;;2.27;1.20;;;24.10;56.50;;;;;;5005290;28;20431;-72
2023/02/20 12:50:09;;;;;;;2.83;1.70;;;24.70;57.60;;;;;;5006233;28;20399;-72
2023/02/20 12:52:58;;;;;;;1.80;1.30;;;26.00;54.60;;;;;;5005756;28;20465;-72
2023/02/20 12:55:27;;;;;;;2.13;1.40;;;25.80;54.80;;;;;;5005258;28;20399;-72
2023/02/20 12:58:25;;;;;;;7.07;1.93;;;26.00;53.60;;;;;;5005215;28;20481;-72
2023/02/20 13:00:59;;;;;;;2.40;1.40;;;26.70;53.00;;;;;;4983302;28;20439;-71
2023/02/20 13:03:54;;;;;;;3.00;1.33;;;26.10;52.90;;;;;;5005218;28;20486;-72
2023/02/20 13:06:43;;;;;;;2.77;1.30;;;27.10;51.40;;;;;;5005433;28;20419;-72
2023/02/20 13:09:15;;;;;;;2.60;1.47;;;27.40;51.60;;;;;;5004267;28;20411;-71
2023/02/20 13:11:44;;;;;;;3.30;1.53;;;28.00;49.70;;;;;;5004847;28;21255;-71
2023/02/20 13:14:12;;;;;;;1.43;1.00;;;28.70;48.40;;;;;;5005148;28;20447;-71
2023/02/20 13:17:10;;;;;;;3.77;1.60;;;28.30;48.30;;;;;;5005017;28;20925;-72
2023/02/20 13:19:48;;;;;;;2.10;1.00;;;28.30;48.90;;;;;;5001751;28;20439;-71
2023/02/20 13:22:15;;;;;;;1.77;1.00;;;28.70;47.50;;;;;;5005062;28;20418;-72
2023/02/20 13:24:41;;;;;;;4.23;1.30;;;27.20;48.00;;;;;;5004417;28;20630;-72
2023/02/20 13:27:09;;;;;;;2.97;1.43;;;28.40;47.80;;;;;;5004824;28;20443;-72